createdAt,value
2022-08-01T00:02:10.005Z,23.10
2022-08-01T00:04:41.126Z,23.13
2022-08-01T00:07:10.024Z,23.14
2022-08-01T00:09:38.963Z,23.14
2022-08-01T00:12:08.480Z,23.09
2022-08-01T00:14:37.515Z,23.03
2022-08-01T00:17:07.593Z,22.98
2022-08-01T00:19:36.818Z,22.95
2022-08-01T00:22:06.044Z,22.91
2022-08-01T00:24:35.379Z,22.87
2022-08-01T00:27:04.668Z,22.82
2022-08-01T00:30:11.427Z,22.77
2022-08-01T00:32:22.395Z,22.72
2022-08-01T00:34:51.332Z,22.66
2022-08-01T00:37:20.254Z,22.61
2022-08-01T00:39:49.061Z,22.61
2022-08-01T00:42:17.889Z,22.60
2022-08-01T00:44:48.156Z,22.58
2022-08-01T00:47:17.260Z,22.56
2022-08-01T00:49:46.151Z,22.56
2022-08-01T00:52:15.007Z,22.54
2022-08-01T00:54:44.534Z,22.53
2022-08-01T00:57:15.049Z,22.53
2022-08-01T00:59:44.164Z,22.54
2022-08-01T01:02:15.030Z,22.51
2022-08-01T01:04:44.806Z,22.47
2022-08-01T01:07:20.238Z,22.38
2022-08-01T01:09:58.147Z,22.29
2022-08-01T01:12:37.421Z,22.19
2022-08-01T01:15:14.565Z,22.10
2022-08-01T01:17:50.901Z,22.05
2022-08-01T01:20:28.031Z,22.06
2022-08-01T01:23:11.437Z,22.05
2022-08-01T01:26:05.968Z,22.03
2022-08-01T01:28:42.884Z,22.00
2022-08-01T01:31:14.391Z,22.00
2022-08-01T01:33:47.241Z,21.98
2022-08-01T01:36:19.246Z,21.98
2022-08-01T01:38:49.104Z,21.96
2022-08-01T01:41:19.245Z,21.93
2022-08-01T01:43:49.370Z,21.89
2022-08-01T01:46:23.108Z,21.84
2022-08-01T01:48:52.864Z,21.79
2022-08-01T01:51:23.763Z,21.68
2022-08-01T01:53:54.807Z,21.58
2022-08-01T01:56:24.945Z,21.51
2022-08-01T01:58:57.272Z,21.43
2022-08-01T02:02:06.033Z,21.39
2022-08-01T02:04:20.946Z,21.34
2022-08-01T02:06:52.168Z,21.32
2022-08-01T02:09:24.157Z,21.26
2022-08-01T02:12:07.385Z,21.19
2022-08-01T02:14:38.243Z,21.12
2022-08-01T02:17:07.244Z,21.03
2022-08-01T02:19:38.033Z,20.99
2022-08-01T02:22:11.342Z,20.97
2022-08-01T02:24:44.438Z,20.96
2022-08-01T02:27:16.815Z,20.94
2022-08-01T02:29:50.904Z,20.92
2022-08-01T02:32:25.550Z,20.93
2022-08-01T02:34:57.933Z,20.92
2022-08-01T02:37:30.201Z,20.91
2022-08-01T02:40:00.491Z,20.93
2022-08-01T02:42:30.708Z,20.93
2022-08-01T02:45:00.955Z,20.91
2022-08-01T02:47:33.024Z,20.87
2022-08-01T02:50:03.148Z,20.83
2022-08-01T02:52:33.779Z,20.81
2022-08-01T02:55:03.693Z,20.81
2022-08-01T02:57:42.714Z,20.81
2022-08-01T03:00:24.749Z,20.78
2022-08-01T03:02:56.871Z,20.77
2022-08-01T03:05:28.243Z,20.75
2022-08-01T03:08:02.638Z,20.74
2022-08-01T03:10:33.870Z,20.73
2022-08-01T03:13:04.018Z,20.71
2022-08-01T03:15:36.760Z,20.68
2022-08-01T03:18:08.933Z,20.67
2022-08-01T03:20:38.283Z,20.68
2022-08-01T03:23:09.619Z,20.67
2022-08-01T03:25:41.554Z,20.68
2022-08-01T03:28:13.237Z,20.69
2022-08-01T03:30:43.542Z,20.70
2022-08-01T03:33:14.486Z,20.70
2022-08-01T03:35:49.517Z,20.71
2022-08-01T03:38:22.612Z,20.72
2022-08-01T03:40:57.124Z,20.72
2022-08-01T03:43:32.547Z,20.74
2022-08-01T03:46:08.116Z,20.77
2022-08-01T03:48:41.749Z,20.78
2022-08-01T03:51:11.543Z,20.74
2022-08-01T03:53:42.500Z,20.71
2022-08-01T03:56:13.020Z,20.69
2022-08-01T03:58:44.184Z,20.71
2022-08-01T04:01:19.839Z,20.73
2022-08-01T04:03:49.847Z,20.74
2022-08-01T04:06:18.783Z,20.72
2022-08-01T04:08:55.787Z,20.71
2022-08-01T04:11:26.102Z,20.68
2022-08-01T04:13:55.730Z,20.62
2022-08-01T04:16:24.699Z,20.60
2022-08-01T04:18:53.818Z,20.60
2022-08-01T04:21:28.032Z,20.62
2022-08-01T04:24:00.117Z,20.63
2022-08-01T04:26:30.737Z,20.63
2022-08-01T04:29:01.606Z,20.61
2022-08-01T04:31:31.586Z,20.64
2022-08-01T04:34:05.392Z,20.62
2022-08-01T04:36:36.652Z,20.62
2022-08-01T04:39:08.488Z,20.64
2022-08-01T04:41:39.546Z,20.69
2022-08-01T04:44:08.921Z,20.74
2022-08-01T04:46:39.487Z,20.80
2022-08-01T04:49:09.914Z,20.89
2022-08-01T04:51:51.380Z,20.97
2022-08-01T04:54:21.895Z,20.97
2022-08-01T04:56:51.482Z,21.02
2022-08-01T04:59:39.059Z,21.04
2022-08-01T05:02:09.211Z,21.12
2022-08-01T05:04:39.063Z,21.21
2022-08-01T05:07:08.774Z,21.24
2022-08-01T05:09:38.140Z,21.29
2022-08-01T05:12:09.686Z,21.38
2022-08-01T05:14:38.706Z,21.47
2022-08-01T05:17:09.146Z,21.54
2022-08-01T05:19:39.504Z,21.67
2022-08-01T05:22:09.688Z,21.78
2022-08-01T05:24:40.296Z,21.87
2022-08-01T05:27:10.503Z,21.95
2022-08-01T05:29:44.714Z,22.05
2022-08-01T05:32:14.011Z,22.17
2022-08-01T05:34:44.209Z,22.23
2022-08-01T05:37:13.045Z,22.29
2022-08-01T05:39:41.849Z,22.35
2022-08-01T05:42:10.797Z,22.41
2022-08-01T05:44:39.677Z,22.48
2022-08-01T05:47:08.640Z,22.59
2022-08-01T05:49:37.794Z,22.69
2022-08-01T05:52:08.034Z,22.73
2022-08-01T05:54:37.312Z,22.77
2022-08-01T05:57:06.293Z,22.84
2022-08-01T05:59:35.264Z,22.93
2022-08-01T06:02:04.531Z,22.96
2022-08-01T06:04:34.018Z,22.98
2022-08-01T06:07:02.885Z,23.01
2022-08-01T06:09:31.715Z,23.01
2022-08-01T06:12:00.572Z,23.08
2022-08-01T06:14:29.555Z,23.11
2022-08-01T06:16:58.823Z,23.13
2022-08-01T06:19:27.800Z,23.17
2022-08-01T06:21:56.650Z,23.26
2022-08-01T06:24:25.430Z,23.34
2022-08-01T06:26:54.272Z,23.38
2022-08-01T06:29:23.158Z,23.44
2022-08-01T06:31:51.948Z,23.48
2022-08-01T06:34:21.972Z,23.52
2022-08-01T06:36:50.820Z,23.52
2022-08-01T06:39:19.684Z,23.55
2022-08-01T06:41:48.442Z,23.61
2022-08-01T06:44:17.549Z,23.63
2022-08-01T06:46:46.331Z,23.69
2022-08-01T06:49:15.156Z,23.77
2022-08-01T06:51:44.049Z,23.89
2022-08-01T06:54:12.830Z,23.96
2022-08-01T06:56:41.643Z,24.04
2022-08-01T06:59:10.794Z,24.05
2022-08-01T07:01:39.712Z,24.06
2022-08-01T07:04:08.569Z,24.19
2022-08-01T07:06:37.434Z,24.45
2022-08-01T07:09:09.651Z,24.72
2022-08-01T07:11:41.249Z,24.98
2022-08-01T07:14:10.151Z,25.20
2022-08-01T07:16:39.135Z,25.39
2022-08-01T07:19:08.442Z,25.61
2022-08-01T07:21:40.690Z,25.85
2022-08-01T07:24:14.445Z,26.08
2022-08-01T07:26:54.106Z,26.36
2022-08-01T07:29:25.608Z,26.67
2022-08-01T07:31:55.763Z,26.97
2022-08-01T07:34:26.068Z,27.27
2022-08-01T07:36:55.116Z,27.60
2022-08-01T07:39:24.170Z,27.89
2022-08-01T07:42:07.796Z,28.10
2022-08-01T07:44:37.507Z,28.38
2022-08-01T07:47:07.228Z,28.66
2022-08-01T07:49:40.258Z,28.90
2022-08-01T07:52:10.240Z,29.14
2022-08-01T07:54:39.287Z,29.38
2022-08-01T07:57:08.220Z,29.69
2022-08-01T07:59:37.427Z,30.00
2022-08-01T08:02:07.042Z,30.22
2022-08-01T08:04:36.271Z,30.48
2022-08-01T08:07:05.611Z,30.76
2022-08-01T08:09:37.415Z,30.96
2022-08-01T08:12:08.858Z,31.20
2022-08-01T08:14:38.131Z,31.28
2022-08-01T08:17:07.777Z,31.35
2022-08-01T08:19:39.264Z,31.48
2022-08-01T08:22:09.589Z,31.69
2022-08-01T08:24:45.579Z,31.99
2022-08-01T08:27:16.253Z,32.27
2022-08-01T08:29:45.262Z,32.28
2022-08-01T08:32:14.410Z,31.77
2022-08-01T08:34:43.821Z,31.58
2022-08-01T08:37:13.280Z,31.59
2022-08-01T08:39:42.457Z,31.85
2022-08-01T08:42:12.379Z,31.99
2022-08-01T08:44:43.763Z,32.18
2022-08-01T08:47:19.876Z,32.26
2022-08-01T08:49:56.912Z,32.41
2022-08-01T08:52:26.860Z,32.65
2022-08-01T08:54:58.727Z,32.91
2022-08-01T08:57:28.086Z,33.26
2022-08-01T08:59:58.385Z,33.43
2022-08-01T09:02:27.337Z,33.31
2022-08-01T09:04:56.459Z,33.11
2022-08-01T09:07:26.591Z,32.87
2022-08-01T09:09:55.493Z,32.68
2022-08-01T09:12:24.276Z,32.57
2022-08-01T09:14:53.884Z,32.47
2022-08-01T09:17:23.045Z,32.26
2022-08-01T09:19:54.615Z,32.05
2022-08-01T09:22:25.804Z,31.86
2022-08-01T09:25:03.596Z,31.65
2022-08-01T09:27:33.441Z,31.52
2022-08-01T09:30:17.135Z,31.44
2022-08-01T09:33:00.951Z,31.31
2022-08-01T09:35:43.511Z,31.25
2022-08-01T09:38:17.430Z,31.12
2022-08-01T09:40:51.923Z,31.03
2022-08-01T09:43:22.132Z,30.97
2022-08-01T09:45:52.902Z,30.82
2022-08-01T09:48:27.900Z,30.59
2022-08-01T09:51:04.150Z,30.44
2022-08-01T09:53:52.062Z,30.32
2022-08-01T09:56:23.466Z,30.12
2022-08-01T09:58:59.549Z,29.98
2022-08-01T10:01:36.614Z,29.80
2022-08-01T10:04:09.946Z,29.77
2022-08-01T10:06:40.984Z,30.02
2022-08-01T10:09:11.170Z,30.39
2022-08-01T10:11:41.225Z,30.70
2022-08-01T10:14:10.149Z,31.05
2022-08-01T10:16:40.687Z,31.34
2022-08-01T10:19:15.420Z,31.68
2022-08-01T10:21:58.020Z,32.06
2022-08-01T10:24:30.161Z,32.43
2022-08-01T10:27:06.142Z,32.67
2022-08-01T10:29:46.413Z,32.86
2022-08-01T10:32:29.560Z,33.05
2022-08-01T10:34:59.494Z,33.11
2022-08-01T10:37:52.027Z,33.03
2022-08-01T10:40:30.848Z,33.16
2022-08-01T10:43:01.124Z,33.28
2022-08-01T10:45:30.982Z,33.30
2022-08-01T10:48:07.034Z,33.34
2022-08-01T10:50:42.592Z,33.37
2022-08-01T10:53:23.121Z,33.26
2022-08-01T10:56:03.232Z,33.02
2022-08-01T10:58:39.795Z,32.81
2022-08-01T11:01:27.234Z,32.58
2022-08-01T11:04:16.958Z,32.44
2022-08-01T11:06:54.777Z,32.14
2022-08-01T11:09:30.389Z,31.99
2022-08-01T11:12:13.478Z,31.92
2022-08-01T11:15:29.244Z,31.85
2022-08-01T11:18:05.877Z,31.63
2022-08-01T11:20:42.089Z,31.26
2022-08-01T11:23:21.707Z,30.87
2022-08-01T11:26:17.592Z,30.65
2022-08-01T11:29:19.965Z,30.57
2022-08-01T11:31:52.880Z,30.28
2022-08-01T11:34:55.215Z,30.11
2022-08-01T11:37:30.619Z,29.99
2022-08-01T11:40:22.853Z,29.98
2022-08-01T11:43:19.803Z,30.01
2022-08-01T11:45:55.380Z,29.95
2022-08-01T11:48:27.811Z,29.95
2022-08-01T11:50:58.702Z,29.88
2022-08-01T11:53:33.617Z,29.84
2022-08-01T11:56:02.682Z,29.76
2022-08-01T11:58:31.605Z,29.73
2022-08-01T12:01:00.899Z,29.73
2022-08-01T12:03:33.494Z,29.71
2022-08-01T12:06:02.924Z,29.66
2022-08-01T12:08:34.729Z,29.57
2022-08-01T12:11:06.935Z,29.50
2022-08-01T12:13:43.435Z,29.51
2022-08-01T12:16:13.065Z,29.50
2022-08-01T12:18:43.592Z,29.38
2022-08-01T12:21:12.481Z,29.24
2022-08-01T12:23:41.407Z,29.11
2022-08-01T12:26:28.425Z,29.05
2022-08-01T12:28:59.157Z,29.00
2022-08-01T12:31:35.200Z,28.98
2022-08-01T12:34:28.760Z,29.02
2022-08-01T12:36:59.936Z,29.04
2022-08-01T12:39:35.953Z,29.08
2022-08-01T12:42:11.075Z,29.15
2022-08-01T12:44:40.626Z,29.17
2022-08-01T12:47:10.080Z,29.10
2022-08-01T12:49:41.105Z,29.04
2022-08-01T12:52:13.359Z,29.04
2022-08-01T12:55:03.482Z,29.16
2022-08-01T12:57:37.700Z,29.18
2022-08-01T13:00:16.124Z,29.22
2022-08-01T13:02:46.629Z,29.32
2022-08-01T13:05:16.506Z,29.38
2022-08-01T13:07:48.661Z,29.45
2022-08-01T13:10:26.763Z,29.48
2022-08-01T13:12:57.684Z,29.49
2022-08-01T13:15:31.498Z,29.50
2022-08-01T13:18:02.410Z,29.57
2022-08-01T13:20:34.337Z,29.62
2022-08-01T13:23:15.315Z,29.68
2022-08-01T13:25:52.856Z,29.74
2022-08-01T13:28:24.207Z,29.73
2022-08-01T13:30:59.095Z,29.67
2022-08-01T13:33:40.647Z,29.64
2022-08-01T13:36:09.564Z,29.57
2022-08-01T13:38:57.059Z,29.46
2022-08-01T13:41:25.941Z,29.38
2022-08-01T13:43:57.639Z,29.33
2022-08-01T13:46:29.551Z,29.34
2022-08-01T13:48:58.661Z,29.28
2022-08-01T13:51:34.541Z,29.22
2022-08-01T13:54:05.213Z,29.22
2022-08-01T13:56:34.325Z,29.11
2022-08-01T13:59:03.406Z,29.02
2022-08-01T14:01:34.448Z,28.97
2022-08-01T14:04:04.659Z,28.92
2022-08-01T14:06:35.504Z,28.85
2022-08-01T14:09:17.763Z,28.76
2022-08-01T14:11:47.628Z,28.69
2022-08-01T14:14:16.592Z,28.67
2022-08-01T14:16:46.049Z,28.67
2022-08-01T14:19:17.054Z,28.64
2022-08-01T14:21:45.899Z,28.63
2022-08-01T14:24:14.752Z,28.61
2022-08-01T14:26:43.553Z,28.54
2022-08-01T14:29:12.439Z,28.45
2022-08-01T14:31:41.338Z,28.41
2022-08-01T14:34:10.196Z,28.38
2022-08-01T14:36:39.111Z,28.36
2022-08-01T14:39:08.153Z,28.37
2022-08-01T14:41:43.798Z,28.36
2022-08-01T14:44:15.446Z,28.39
2022-08-01T14:46:57.731Z,28.42
2022-08-01T14:49:27.986Z,28.44
2022-08-01T14:51:56.993Z,28.46
2022-08-01T14:54:29.053Z,28.42
2022-08-01T14:56:58.894Z,28.38
2022-08-01T14:59:27.732Z,28.40
2022-08-01T15:01:56.448Z,28.41
2022-08-01T15:04:25.627Z,28.43
2022-08-01T15:06:54.438Z,28.44
2022-08-01T15:09:24.056Z,28.46
2022-08-01T15:11:53.157Z,28.48
2022-08-01T15:14:40.213Z,28.50
2022-08-01T15:17:09.056Z,28.49
2022-08-01T15:19:42.007Z,28.47
2022-08-01T15:22:11.559Z,28.49
2022-08-01T15:24:40.564Z,28.50
2022-08-01T15:27:09.860Z,28.53
2022-08-01T15:29:39.169Z,28.58
2022-08-01T15:32:09.481Z,28.62
2022-08-01T15:34:39.390Z,28.63
2022-08-01T15:37:10.330Z,28.64
2022-08-01T15:39:39.943Z,28.64
2022-08-01T15:42:11.009Z,28.60
2022-08-01T15:44:40.176Z,28.60
2022-08-01T15:47:10.304Z,28.63
2022-08-01T15:49:39.369Z,28.67
2022-08-01T15:52:22.262Z,28.71
2022-08-01T15:54:51.899Z,28.76
2022-08-01T15:57:21.124Z,28.79
2022-08-01T15:59:49.974Z,28.84
2022-08-01T16:02:18.879Z,28.88
2022-08-01T16:04:47.802Z,28.86
2022-08-01T16:07:16.631Z,28.86
2022-08-01T16:09:45.674Z,28.87
2022-08-01T16:12:14.450Z,28.90
2022-08-01T16:14:43.183Z,28.93
2022-08-01T16:17:12.189Z,28.94
2022-08-01T16:19:41.535Z,28.91
2022-08-01T16:22:10.548Z,28.88
2022-08-01T16:24:39.462Z,28.84
2022-08-01T16:27:08.637Z,28.80
2022-08-01T16:29:37.749Z,28.76
2022-08-01T16:32:34.285Z,28.74
2022-08-01T16:34:56.086Z,28.69
2022-08-01T16:37:24.975Z,28.64
2022-08-01T16:39:53.881Z,28.57
2022-08-01T16:42:27.674Z,28.53
2022-08-01T16:44:58.924Z,28.48
2022-08-01T16:47:27.723Z,28.44
2022-08-01T16:49:56.541Z,28.41
2022-08-01T16:52:28.759Z,28.37
2022-08-01T16:54:57.935Z,28.32
2022-08-01T16:57:26.790Z,28.29
2022-08-01T16:59:55.631Z,28.25
2022-08-01T17:02:25.278Z,28.20
2022-08-01T17:04:54.114Z,28.12
2022-08-01T17:07:22.987Z,28.08
2022-08-01T17:09:51.866Z,28.04
2022-08-01T17:12:22.481Z,28.02
2022-08-01T17:14:52.033Z,27.98
2022-08-01T17:17:20.925Z,27.94
2022-08-01T17:19:50.553Z,27.88
2022-08-01T17:22:19.950Z,27.82
2022-08-01T17:24:50.456Z,27.75
2022-08-01T17:27:19.454Z,27.68
2022-08-01T17:29:48.340Z,27.60
2022-08-01T17:32:17.208Z,27.53
2022-08-01T17:34:46.021Z,27.47
2022-08-01T17:37:14.974Z,27.41
2022-08-01T17:39:43.907Z,27.36
2022-08-01T17:42:12.735Z,27.29
2022-08-01T17:44:41.834Z,27.23
2022-08-01T17:47:40.939Z,27.16
2022-08-01T17:50:09.858Z,27.12
2022-08-01T17:52:38.863Z,27.08
2022-08-01T17:55:55.626Z,27.05
2022-08-01T17:57:57.866Z,27.00
2022-08-01T18:00:30.859Z,26.93
2022-08-01T18:02:59.652Z,26.87
2022-08-01T18:05:37.164Z,26.81
2022-08-01T18:08:07.772Z,26.78
2022-08-01T18:10:36.576Z,26.72
2022-08-01T18:13:09.087Z,26.68
2022-08-01T18:15:38.138Z,26.63
2022-08-01T18:18:08.035Z,26.59
2022-08-01T18:20:36.895Z,26.56
2022-08-01T18:23:09.431Z,26.51
2022-08-01T18:25:38.612Z,26.47
2022-08-01T18:28:23.388Z,26.44
2022-08-01T18:30:57.047Z,26.39
2022-08-01T18:33:25.789Z,26.35
2022-08-01T18:35:55.679Z,26.32
2022-08-01T18:38:31.652Z,26.28
2022-08-01T18:41:00.564Z,26.26
2022-08-01T18:43:29.710Z,26.23
2022-08-01T18:46:00.597Z,26.20
2022-08-01T18:48:29.708Z,26.15
2022-08-01T18:51:00.293Z,26.10
2022-08-01T18:53:29.471Z,26.06
2022-08-01T18:55:58.260Z,26.02
2022-08-01T18:58:27.533Z,25.99
2022-08-01T19:00:56.377Z,25.98
2022-08-01T19:03:25.208Z,25.97
2022-08-01T19:05:53.999Z,25.95
2022-08-01T19:08:22.913Z,25.93
2022-08-01T19:10:52.048Z,25.90
2022-08-01T19:13:20.897Z,25.85
2022-08-01T19:15:49.739Z,25.81
2022-08-01T19:18:19.108Z,25.77
2022-08-01T19:20:48.025Z,25.73
2022-08-01T19:23:35.226Z,25.67
2022-08-01T19:26:09.142Z,25.58
2022-08-01T19:28:45.971Z,25.49
2022-08-01T19:31:15.099Z,25.42
2022-08-01T19:33:44.519Z,25.38
2022-08-01T19:36:16.695Z,25.35
2022-08-01T19:38:46.286Z,25.29
2022-08-01T19:41:17.458Z,25.25
2022-08-01T19:43:47.446Z,25.23
2022-08-01T19:46:18.261Z,25.21
2022-08-01T19:48:53.612Z,25.20
2022-08-01T19:51:33.609Z,25.20
2022-08-01T19:54:06.286Z,25.19
2022-08-01T19:56:39.973Z,25.17
2022-08-01T19:59:09.574Z,25.18
2022-08-01T20:01:38.411Z,25.19
2022-08-01T20:04:08.593Z,25.19
2022-08-01T20:06:38.058Z,25.18
2022-08-01T20:09:07.581Z,25.16
2022-08-01T20:11:36.541Z,25.12
2022-08-01T20:14:05.515Z,25.09
2022-08-01T20:16:34.868Z,25.05
2022-08-01T20:19:04.508Z,25.03
2022-08-01T20:21:35.332Z,25.00
2022-08-01T20:24:09.852Z,24.96
2022-08-01T20:26:39.782Z,24.93
2022-08-01T20:29:09.154Z,24.93
2022-08-01T20:31:43.825Z,24.88
2022-08-01T20:34:16.764Z,24.83
2022-08-01T20:36:54.535Z,24.76
2022-08-01T20:39:26.759Z,24.73
2022-08-01T20:41:59.559Z,24.69
2022-08-01T20:44:31.060Z,24.66
2022-08-01T20:47:01.022Z,24.63
2022-08-01T20:49:31.692Z,24.63
2022-08-01T20:52:00.728Z,24.62
2022-08-01T20:54:42.316Z,24.59
2022-08-01T20:57:20.257Z,24.54
2022-08-01T20:59:56.548Z,24.48
2022-08-01T21:02:37.379Z,24.44
2022-08-01T21:05:10.157Z,24.41
2022-08-01T21:07:48.344Z,24.41
2022-08-01T21:10:18.830Z,24.39
2022-08-01T21:12:50.436Z,24.38
2022-08-01T21:15:29.806Z,24.35
2022-08-01T21:18:03.660Z,24.33
2022-08-01T21:20:35.641Z,24.30
2022-08-01T21:23:16.814Z,24.25
2022-08-01T21:25:47.347Z,24.20
2022-08-01T21:28:16.151Z,24.17
2022-08-01T21:30:55.471Z,24.15
2022-08-01T21:33:26.130Z,24.12
2022-08-01T21:36:00.187Z,24.09
2022-08-01T21:38:35.754Z,24.07
2022-08-01T21:41:06.935Z,24.09
2022-08-01T21:43:38.459Z,24.10
2022-08-01T21:46:09.089Z,24.12
2022-08-01T21:48:38.811Z,24.15
2022-08-01T21:51:21.915Z,24.17
2022-08-01T21:54:07.077Z,24.20
2022-08-01T21:56:49.312Z,24.22
2022-08-01T21:59:24.155Z,24.22
2022-08-01T22:02:01.242Z,24.24
2022-08-01T22:04:38.203Z,24.24
2022-08-01T22:07:10.685Z,24.26
2022-08-01T22:09:44.087Z,24.26
2022-08-01T22:12:17.866Z,24.26
2022-08-01T22:14:53.406Z,24.25
2022-08-01T22:17:24.251Z,24.26
2022-08-01T22:19:55.680Z,24.26
2022-08-01T22:22:50.744Z,24.26
2022-08-01T22:25:14.437Z,24.26
2022-08-01T22:28:08.653Z,24.25
2022-08-01T22:30:34.766Z,24.24
2022-08-01T22:33:07.957Z,24.24
2022-08-01T22:35:47.322Z,24.24
2022-08-01T22:38:18.256Z,24.22
2022-08-01T22:40:50.431Z,24.20
2022-08-01T22:43:26.421Z,24.19
2022-08-01T22:46:09.207Z,24.19
2022-08-01T22:48:44.925Z,24.18
2022-08-01T22:51:23.443Z,24.15
2022-08-01T22:54:01.367Z,24.13
2022-08-01T22:56:31.981Z,24.09
2022-08-01T22:59:06.215Z,24.05
2022-08-01T23:01:37.984Z,23.98
2022-08-01T23:04:11.980Z,23.99
2022-08-01T23:06:43.192Z,23.95
2022-08-01T23:09:13.098Z,23.92
2022-08-01T23:11:42.022Z,23.90
2022-08-01T23:14:11.608Z,23.89
2022-08-01T23:16:41.972Z,23.88
2022-08-01T23:19:11.744Z,23.89
2022-08-01T23:21:42.500Z,23.90
2022-08-01T23:24:13.936Z,23.90
2022-08-01T23:26:43.869Z,23.89
2022-08-01T23:29:13.096Z,23.87
2022-08-01T23:31:58.240Z,23.85
2022-08-01T23:34:30.741Z,23.79
2022-08-01T23:36:59.633Z,23.76
2022-08-01T23:39:28.561Z,23.73
2022-08-01T23:41:59.535Z,23.74
2022-08-01T23:44:30.168Z,23.73
2022-08-01T23:46:59.005Z,23.72
2022-08-01T23:49:28.325Z,23.70
2022-08-01T23:51:57.283Z,23.66
2022-08-01T23:54:26.147Z,23.60
2022-08-01T23:56:55.333Z,23.60
2022-08-01T23:59:24.116Z,23.58
